sensor_id;sensor_type;location;lat;lon;timestamp;P1;durP1;ratioP1;P2;durP2;ratioP2
8532;SDS011;4304;53.876;10.662;2023-04-24T00:00:45;1.73;;;1.05;;
8532;SDS011;4304;53.876;10.662;2023-04-24T00:03:11;2.25;;;1.45;;
8532;SDS011;4304;53.876;10.662;2023-04-24T00:05:37;1.15;;;0.95;;
8532;SDS011;4304;53.876;10.662;2023-04-24T00:08:05;2.83;;;1.33;;
8532;SDS011;4304;53.876;10.662;2023-04-24T00:10:31;1.33;;;0.65;;
8532;SDS011;4304;53.876;10.662;2023-04-24T00:12:56;2.10;;;1.13;;
8532;SDS011;4304;53.876;10.662;2023-04-24T00:15:22;2.25;;;1.02;;
8532;SDS011;4304;53.876;10.662;2023-04-24T00:17:47;1.15;;;0.75;;
8532;SDS011;4304;53.876;10.662;2023-04-24T00:20:12;1.73;;;0.80;;
8532;SDS011;4304;53.876;10.662;2023-04-24T00:22:39;2.20;;;1.10;;
8532;SDS011;4304;53.876;10.662;2023-04-24T00:25:05;1.75;;;1.17;;
8532;SDS011;4304;53.876;10.662;2023-04-24T00:27:31;2.28;;;1.10;;
8532;SDS011;4304;53.876;10.662;2023-04-24T00:29:56;4.05;;;1.85;;
8532;SDS011;4304;53.876;10.662;2023-04-24T00:32:21;1.55;;;0.77;;
8532;SDS011;4304;53.876;10.662;2023-04-24T00:34:47;2.40;;;1.23;;
8532;SDS011;4304;53.876;10.662;2023-04-24T00:37:12;1.93;;;1.20;;
8532;SDS011;4304;53.876;10.662;2023-04-24T00:39:37;3.13;;;1.48;;
8532;SDS011;4304;53.876;10.662;2023-04-24T00:42:03;1.98;;;1.05;;
8532;SDS011;4304;53.876;10.662;2023-04-24T00:44:30;1.65;;;0.90;;
8532;SDS011;4304;53.876;10.662;2023-04-24T00:46:56;2.97;;;0.93;;
8532;SDS011;4304;53.876;10.662;2023-04-24T00:49:22;2.95;;;1.40;;
8532;SDS011;4304;53.876;10.662;2023-04-24T00:51:47;2.38;;;0.70;;
8532;SDS011;4304;53.876;10.662;2023-04-24T00:54:14;1.55;;;0.73;;
8532;SDS011;4304;53.876;10.662;2023-04-24T00:56:40;1.98;;;1.15;;
8532;SDS011;4304;53.876;10.662;2023-04-24T00:59:07;3.20;;;1.88;;
8532;SDS011;4304;53.876;10.662;2023-04-24T01:01:33;2.58;;;1.52;;
8532;SDS011;4304;53.876;10.662;2023-04-24T01:03:58;2.85;;;1.00;;
8532;SDS011;4304;53.876;10.662;2023-04-24T01:06:24;2.30;;;1.30;;
8532;SDS011;4304;53.876;10.662;2023-04-24T01:08:52;1.80;;;1.27;;
8532;SDS011;4304;53.876;10.662;2023-04-24T01:11:20;2.33;;;1.25;;
8532;SDS011;4304;53.876;10.662;2023-04-24T01:13:46;2.13;;;0.77;;
8532;SDS011;4304;53.876;10.662;2023-04-24T01:16:13;3.90;;;1.85;;
8532;SDS011;4304;53.876;10.662;2023-04-24T01:18:38;3.03;;;0.85;;
8532;SDS011;4304;53.876;10.662;2023-04-24T01:21:04;2.43;;;1.00;;
8532;SDS011;4304;53.876;10.662;2023-04-24T01:23:30;1.65;;;1.10;;
8532;SDS011;4304;53.876;10.662;2023-04-24T01:25:56;1.77;;;1.25;;
8532;SDS011;4304;53.876;10.662;2023-04-24T01:28:21;2.20;;;0.98;;
8532;SDS011;4304;53.876;10.662;2023-04-24T01:30:47;3.15;;;1.10;;
8532;SDS011;4304;53.876;10.662;2023-04-24T01:33:13;3.08;;;1.25;;
8532;SDS011;4304;53.876;10.662;2023-04-24T01:35:39;3.33;;;1.35;;
8532;SDS011;4304;53.876;10.662;2023-04-24T01:38:05;2.65;;;1.10;;
8532;SDS011;4304;53.876;10.662;2023-04-24T01:40:30;2.35;;;1.60;;
8532;SDS011;4304;53.876;10.662;2023-04-24T01:42:57;3.67;;;1.45;;
8532;SDS011;4304;53.876;10.662;2023-04-24T01:45:22;1.38;;;1.02;;
8532;SDS011;4304;53.876;10.662;2023-04-24T01:47:48;2.42;;;1.02;;
8532;SDS011;4304;53.876;10.662;2023-04-24T01:50:14;1.98;;;0.90;;
8532;SDS011;4304;53.876;10.662;2023-04-24T01:52:40;2.67;;;1.48;;
8532;SDS011;4304;53.876;10.662;2023-04-24T01:55:06;4.53;;;1.60;;
8532;SDS011;4304;53.876;10.662;2023-04-24T01:57:32;3.90;;;1.92;;
8532;SDS011;4304;53.876;10.662;2023-04-24T01:59:58;1.48;;;0.82;;
8532;SDS011;4304;53.876;10.662;2023-04-24T02:02:24;1.58;;;0.75;;
8532;SDS011;4304;53.876;10.662;2023-04-24T02:04:52;2.58;;;0.98;;
8532;SDS011;4304;53.876;10.662;2023-04-24T02:07:20;1.83;;;0.80;;
8532;SDS011;4304;53.876;10.662;2023-04-24T02:09:45;2.75;;;1.50;;
8532;SDS011;4304;53.876;10.662;2023-04-24T02:12:11;2.90;;;2.33;;
8532;SDS011;4304;53.876;10.662;2023-04-24T02:14:36;3.07;;;1.20;;
8532;SDS011;4304;53.876;10.662;2023-04-24T02:17:01;1.90;;;0.80;;
8532;SDS011;4304;53.876;10.662;2023-04-24T02:19:27;2.35;;;1.15;;
8532;SDS011;4304;53.876;10.662;2023-04-24T02:21:52;3.55;;;0.77;;
8532;SDS011;4304;53.876;10.662;2023-04-24T02:24:17;1.37;;;0.73;;
8532;SDS011;4304;53.876;10.662;2023-04-24T02:26:43;1.63;;;0.52;;
8532;SDS011;4304;53.876;10.662;2023-04-24T02:29:08;3.27;;;1.07;;
8532;SDS011;4304;53.876;10.662;2023-04-24T02:31:33;3.97;;;1.85;;
8532;SDS011;4304;53.876;10.662;2023-04-24T02:33:58;1.23;;;0.80;;
8532;SDS011;4304;53.876;10.662;2023-04-24T02:36:24;2.08;;;1.30;;
8532;SDS011;4304;53.876;10.662;2023-04-24T02:38:49;1.50;;;0.73;;
8532;SDS011;4304;53.876;10.662;2023-04-24T02:41:15;2.63;;;1.20;;
8532;SDS011;4304;53.876;10.662;2023-04-24T02:43:40;5.07;;;1.73;;
8532;SDS011;4304;53.876;10.662;2023-04-24T02:46:05;2.13;;;1.02;;
8532;SDS011;4304;53.876;10.662;2023-04-24T02:48:31;4.00;;;1.85;;
8532;SDS011;4304;53.876;10.662;2023-04-24T02:50:56;2.73;;;1.37;;
8532;SDS011;4304;53.876;10.662;2023-04-24T02:53:22;1.77;;;0.95;;
8532;SDS011;4304;53.876;10.662;2023-04-24T02:55:48;2.72;;;1.38;;
8532;SDS011;4304;53.876;10.662;2023-04-24T02:58:13;2.58;;;1.20;;
8532;SDS011;4304;53.876;10.662;2023-04-24T03:00:39;3.90;;;1.63;;
8532;SDS011;4304;53.876;10.662;2023-04-24T03:03:04;3.10;;;1.65;;
8532;SDS011;4304;53.876;10.662;2023-04-24T03:05:30;1.73;;;0.85;;
8532;SDS011;4304;53.876;10.662;2023-04-24T03:07:56;1.83;;;0.98;;
8532;SDS011;4304;53.876;10.662;2023-04-24T03:10:21;2.58;;;1.77;;
8532;SDS011;4304;53.876;10.662;2023-04-24T03:12:49;2.78;;;1.33;;
8532;SDS011;4304;53.876;10.662;2023-04-24T03:15:15;1.80;;;1.30;;
8532;SDS011;4304;53.876;10.662;2023-04-24T03:17:40;3.53;;;1.85;;
8532;SDS011;4304;53.876;10.662;2023-04-24T03:20:06;1.73;;;1.33;;
8532;SDS011;4304;53.876;10.662;2023-04-24T03:22:33;1.73;;;1.42;;
8532;SDS011;4304;53.876;10.662;2023-04-24T03:24:58;5.63;;;1.08;;
8532;SDS011;4304;53.876;10.662;2023-04-24T03:27:24;3.45;;;1.23;;
8532;SDS011;4304;53.876;10.662;2023-04-24T03:29:49;1.80;;;0.98;;
8532;SDS011;4304;53.876;10.662;2023-04-24T03:32:19;2.10;;;1.00;;
8532;SDS011;4304;53.876;10.662;2023-04-24T03:34:44;1.75;;;0.77;;
8532;SDS011;4304;53.876;10.662;2023-04-24T03:37:10;1.95;;;1.20;;
8532;SDS011;4304;53.876;10.662;2023-04-24T03:39:35;4.68;;;1.58;;
8532;SDS011;4304;53.876;10.662;2023-04-24T03:42:00;3.33;;;1.17;;
8532;SDS011;4304;53.876;10.662;2023-04-24T03:44:26;1.35;;;0.57;;
8532;SDS011;4304;53.876;10.662;2023-04-24T03:46:51;1.52;;;0.88;;
8532;SDS011;4304;53.876;10.662;2023-04-24T03:49:17;3.58;;;1.52;;
8532;SDS011;4304;53.876;10.662;2023-04-24T03:51:42;2.78;;;1.70;;
8532;SDS011;4304;53.876;10.662;2023-04-24T03:54:07;2.33;;;1.13;;
8532;SDS011;4304;53.876;10.662;2023-04-24T03:56:33;2.47;;;0.93;;
8532;SDS011;4304;53.876;10.662;2023-04-24T03:58:58;1.97;;;1.07;;
8532;SDS011;4304;53.876;10.662;2023-04-24T04:01:23;1.67;;;0.93;;
8532;SDS011;4304;53.876;10.662;2023-04-24T04:03:49;1.10;;;0.60;;
8532;SDS011;4304;53.876;10.662;2023-04-24T04:06:14;1.17;;;0.52;;
8532;SDS011;4304;53.876;10.662;2023-04-24T04:08:40;1.38;;;0.68;;
8532;SDS011;4304;53.876;10.662;2023-04-24T04:11:05;2.53;;;1.20;;
8532;SDS011;4304;53.876;10.662;2023-04-24T04:13:31;1.45;;;0.52;;
8532;SDS011;4304;53.876;10.662;2023-04-24T04:15:56;3.42;;;1.15;;
8532;SDS011;4304;53.876;10.662;2023-04-24T04:18:21;2.00;;;1.15;;
8532;SDS011;4304;53.876;10.662;2023-04-24T04:20:47;1.73;;;0.68;;
8532;SDS011;4304;53.876;10.662;2023-04-24T04:23:12;2.47;;;1.38;;
8532;SDS011;4304;53.876;10.662;2023-04-24T04:25:37;1.30;;;0.77;;
8532;SDS011;4304;53.876;10.662;2023-04-24T04:28:03;1.00;;;0.60;;
8532;SDS011;4304;53.876;10.662;2023-04-24T04:30:28;2.30;;;1.33;;
8532;SDS011;4304;53.876;10.662;2023-04-24T04:32:57;1.95;;;0.75;;
8532;SDS011;4304;53.876;10.662;2023-04-24T04:35:22;0.88;;;0.63;;
8532;SDS011;4304;53.876;10.662;2023-04-24T04:37:48;1.27;;;0.47;;
8532;SDS011;4304;53.876;10.662;2023-04-24T04:40:13;2.07;;;0.93;;
8532;SDS011;4304;53.876;10.662;2023-04-24T04:42:38;0.40;;;0.30;;
8532;SDS011;4304;53.876;10.662;2023-04-24T04:45:06;1.25;;;0.43;;
8532;SDS011;4304;53.876;10.662;2023-04-24T04:47:33;1.90;;;0.93;;
8532;SDS011;4304;53.876;10.662;2023-04-24T04:49:59;1.77;;;1.15;;
8532;SDS011;4304;53.876;10.662;2023-04-24T04:52:25;2.35;;;0.82;;
8532;SDS011;4304;53.876;10.662;2023-04-24T04:54:50;2.20;;;1.48;;
8532;SDS011;4304;53.876;10.662;2023-04-24T04:57:16;1.57;;;0.80;;
8532;SDS011;4304;53.876;10.662;2023-04-24T04:59:41;0.98;;;0.60;;
8532;SDS011;4304;53.876;10.662;2023-04-24T05:02:07;1.67;;;0.60;;
8532;SDS011;4304;53.876;10.662;2023-04-24T05:04:32;1.10;;;0.57;;
8532;SDS011;4304;53.876;10.662;2023-04-24T05:06:57;1.98;;;1.00;;
8532;SDS011;4304;53.876;10.662;2023-04-24T05:09:23;2.17;;;0.82;;
8532;SDS011;4304;53.876;10.662;2023-04-24T05:11:48;1.80;;;1.13;;
8532;SDS011;4304;53.876;10.662;2023-04-24T05:14:13;1.77;;;0.97;;
8532;SDS011;4304;53.876;10.662;2023-04-24T05:16:39;1.13;;;0.55;;
8532;SDS011;4304;53.876;10.662;2023-04-24T05:19:05;1.50;;;1.00;;
8532;SDS011;4304;53.876;10.662;2023-04-24T05:21:31;0.82;;;0.38;;
8532;SDS011;4304;53.876;10.662;2023-04-24T05:23:56;1.45;;;0.90;;
8532;SDS011;4304;53.876;10.662;2023-04-24T05:26:21;1.42;;;0.77;;
8532;SDS011;4304;53.876;10.662;2023-04-24T05:28:47;3.50;;;1.23;;
8532;SDS011;4304;53.876;10.662;2023-04-24T05:31:13;0.85;;;0.52;;
8532;SDS011;4304;53.876;10.662;2023-04-24T05:33:38;1.55;;;0.88;;
8532;SDS011;4304;53.876;10.662;2023-04-24T05:36:04;0.98;;;0.75;;
8532;SDS011;4304;53.876;10.662;2023-04-24T05:38:31;1.13;;;0.60;;
8532;SDS011;4304;53.876;10.662;2023-04-24T05:40:56;1.80;;;0.80;;
8532;SDS011;4304;53.876;10.662;2023-04-24T05:43:22;1.10;;;0.60;;
8532;SDS011;4304;53.876;10.662;2023-04-24T05:45:47;1.08;;;0.57;;
8532;SDS011;4304;53.876;10.662;2023-04-24T05:48:12;1.70;;;0.73;;
8532;SDS011;4304;53.876;10.662;2023-04-24T05:50:38;1.08;;;0.50;;
8532;SDS011;4304;53.876;10.662;2023-04-24T05:53:03;1.10;;;0.60;;
8532;SDS011;4304;53.876;10.662;2023-04-24T05:55:30;1.17;;;0.52;;
8532;SDS011;4304;53.876;10.662;2023-04-24T05:57:56;1.05;;;0.50;;
8532;SDS011;4304;53.876;10.662;2023-04-24T06:00:21;1.67;;;1.08;;
8532;SDS011;4304;53.876;10.662;2023-04-24T06:02:46;1.35;;;0.95;;
8532;SDS011;4304;53.876;10.662;2023-04-24T06:05:12;1.42;;;0.70;;
8532;SDS011;4304;53.876;10.662;2023-04-24T06:07:37;1.38;;;0.57;;
8532;SDS011;4304;53.876;10.662;2023-04-24T06:10:02;0.90;;;0.55;;
8532;SDS011;4304;53.876;10.662;2023-04-24T06:12:28;1.83;;;0.90;;
8532;SDS011;4304;53.876;10.662;2023-04-24T06:14:53;0.80;;;0.35;;
8532;SDS011;4304;53.876;10.662;2023-04-24T06:17:20;0.98;;;0.50;;
8532;SDS011;4304;53.876;10.662;2023-04-24T06:19:45;1.33;;;0.63;;
8532;SDS011;4304;53.876;10.662;2023-04-24T06:22:11;1.17;;;0.60;;
8532;SDS011;4304;53.876;10.662;2023-04-24T06:24:36;0.97;;;0.40;;
8532;SDS011;4304;53.876;10.662;2023-04-24T06:27:01;0.68;;;0.30;;
8532;SDS011;4304;53.876;10.662;2023-04-24T06:29:27;0.90;;;0.40;;
8532;SDS011;4304;53.876;10.662;2023-04-24T06:31:53;0.60;;;0.30;;
8532;SDS011;4304;53.876;10.662;2023-04-24T06:34:18;0.93;;;0.40;;
8532;SDS011;4304;53.876;10.662;2023-04-24T06:36:43;0.95;;;0.65;;
8532;SDS011;4304;53.876;10.662;2023-04-24T06:39:09;0.60;;;0.30;;
8532;SDS011;4304;53.876;10.662;2023-04-24T06:41:34;0.88;;;0.43;;
8532;SDS011;4304;53.876;10.662;2023-04-24T06:44:00;1.52;;;0.93;;
8532;SDS011;4304;53.876;10.662;2023-04-24T06:46:26;0.80;;;0.50;;
8532;SDS011;4304;53.876;10.662;2023-04-24T06:48:52;0.68;;;0.40;;
8532;SDS011;4304;53.876;10.662;2023-04-24T06:51:24;0.90;;;0.40;;
8532;SDS011;4304;53.876;10.662;2023-04-24T06:53:54;5.22;;;0.70;;
8532;SDS011;4304;53.876;10.662;2023-04-24T06:56:21;0.70;;;0.30;;
8532;SDS011;4304;53.876;10.662;2023-04-24T06:58:46;0.88;;;0.40;;
8532;SDS011;4304;53.876;10.662;2023-04-24T07:01:12;1.23;;;0.47;;
8532;SDS011;4304;53.876;10.662;2023-04-24T07:03:37;0.55;;;0.30;;
8532;SDS011;4304;53.876;10.662;2023-04-24T07:06:02;1.13;;;0.50;;
8532;SDS011;4304;53.876;10.662;2023-04-24T07:08:29;1.23;;;0.40;;
8532;SDS011;4304;53.876;10.662;2023-04-24T07:10:58;0.65;;;0.28;;
8532;SDS011;4304;53.876;10.662;2023-04-24T07:13:24;0.52;;;0.30;;
8532;SDS011;4304;53.876;10.662;2023-04-24T07:15:49;1.50;;;0.80;;
8532;SDS011;4304;53.876;10.662;2023-04-24T07:18:15;1.00;;;0.60;;
8532;SDS011;4304;53.876;10.662;2023-04-24T07:20:41;0.88;;;0.40;;
8532;SDS011;4304;53.876;10.662;2023-04-24T07:23:10;1.33;;;0.70;;
8532;SDS011;4304;53.876;10.662;2023-04-24T07:25:35;1.23;;;0.68;;
8532;SDS011;4304;53.876;10.662;2023-04-24T07:28:01;1.85;;;0.90;;
8532;SDS011;4304;53.876;10.662;2023-04-24T07:30:26;1.15;;;0.52;;
8532;SDS011;4304;53.876;10.662;2023-04-24T07:32:53;1.17;;;0.57;;
8532;SDS011;4304;53.876;10.662;2023-04-24T07:35:19;1.27;;;0.50;;
8532;SDS011;4304;53.876;10.662;2023-04-24T07:37:45;1.50;;;0.70;;
8532;SDS011;4304;53.876;10.662;2023-04-24T07:40:11;1.80;;;0.70;;
8532;SDS011;4304;53.876;10.662;2023-04-24T07:42:37;1.25;;;0.68;;
8532;SDS011;4304;53.876;10.662;2023-04-24T07:45:03;1.08;;;0.55;;
8532;SDS011;4304;53.876;10.662;2023-04-24T07:47:29;8.85;;;0.50;;
8532;SDS011;4304;53.876;10.662;2023-04-24T07:49:54;0.80;;;0.40;;
8532;SDS011;4304;53.876;10.662;2023-04-24T07:52:20;7.00;;;0.90;;
8532;SDS011;4304;53.876;10.662;2023-04-24T07:54:45;3.83;;;0.55;;
8532;SDS011;4304;53.876;10.662;2023-04-24T07:57:10;2.05;;;0.70;;
8532;SDS011;4304;53.876;10.662;2023-04-24T07:59:36;1.60;;;0.60;;
8532;SDS011;4304;53.876;10.662;2023-04-24T08:02:01;1.17;;;0.60;;
8532;SDS011;4304;53.876;10.662;2023-04-24T08:04:26;1.15;;;0.70;;
8532;SDS011;4304;53.876;10.662;2023-04-24T08:06:52;1.05;;;0.43;;
8532;SDS011;4304;53.876;10.662;2023-04-24T08:09:17;1.03;;;0.50;;
8532;SDS011;4304;53.876;10.662;2023-04-24T08:11:43;2.05;;;0.88;;
8532;SDS011;4304;53.876;10.662;2023-04-24T08:14:09;1.88;;;0.75;;
8532;SDS011;4304;53.876;10.662;2023-04-24T08:16:34;0.98;;;0.57;;
8532;SDS011;4304;53.876;10.662;2023-04-24T08:19:00;1.17;;;0.43;;
8532;SDS011;4304;53.876;10.662;2023-04-24T08:21:25;1.10;;;0.40;;
8532;SDS011;4304;53.876;10.662;2023-04-24T08:23:52;1.02;;;0.50;;
8532;SDS011;4304;53.876;10.662;2023-04-24T08:26:18;0.70;;;0.30;;
8532;SDS011;4304;53.876;10.662;2023-04-24T08:28:43;1.52;;;0.77;;
8532;SDS011;4304;53.876;10.662;2023-04-24T08:31:09;1.50;;;0.70;;
8532;SDS011;4304;53.876;10.662;2023-04-24T08:33:35;0.98;;;0.50;;
8532;SDS011;4304;53.876;10.662;2023-04-24T08:36:01;1.25;;;0.52;;
8532;SDS011;4304;53.876;10.662;2023-04-24T08:38:30;1.75;;;0.95;;
8532;SDS011;4304;53.876;10.662;2023-04-24T08:40:57;1.65;;;0.70;;
8532;SDS011;4304;53.876;10.662;2023-04-24T08:43:24;2.05;;;0.70;;
8532;SDS011;4304;53.876;10.662;2023-04-24T08:45:50;2.78;;;0.50;;
8532;SDS011;4304;53.876;10.662;2023-04-24T08:48:16;3.00;;;0.70;;
8532;SDS011;4304;53.876;10.662;2023-04-24T08:50:42;1.27;;;0.60;;
8532;SDS011;4304;53.876;10.662;2023-04-24T08:53:09;1.02;;;0.73;;
8532;SDS011;4304;53.876;10.662;2023-04-24T08:55:35;0.90;;;0.40;;
8532;SDS011;4304;53.876;10.662;2023-04-24T08:58:01;2.00;;;1.13;;
8532;SDS011;4304;53.876;10.662;2023-04-24T09:00:28;1.25;;;0.50;;
8532;SDS011;4304;53.876;10.662;2023-04-24T09:02:53;1.20;;;0.50;;
8532;SDS011;4304;53.876;10.662;2023-04-24T09:05:20;1.00;;;0.50;;
8532;SDS011;4304;53.876;10.662;2023-04-24T09:07:53;1.10;;;0.43;;
8532;SDS011;4304;53.876;10.662;2023-04-24T09:10:20;0.80;;;0.43;;
8532;SDS011;4304;53.876;10.662;2023-04-24T09:12:47;1.13;;;0.50;;
8532;SDS011;4304;53.876;10.662;2023-04-24T09:15:12;1.67;;;0.70;;
8532;SDS011;4304;53.876;10.662;2023-04-24T09:17:38;4.57;;;0.50;;
8532;SDS011;4304;53.876;10.662;2023-04-24T09:20:03;0.75;;;0.47;;
8532;SDS011;4304;53.876;10.662;2023-04-24T09:22:30;1.30;;;0.82;;
8532;SDS011;4304;53.876;10.662;2023-04-24T09:25:02;1.38;;;0.77;;
8532;SDS011;4304;53.876;10.662;2023-04-24T09:27:29;1.75;;;0.90;;
8532;SDS011;4304;53.876;10.662;2023-04-24T09:29:55;1.42;;;0.50;;
8532;SDS011;4304;53.876;10.662;2023-04-24T09:32:21;1.90;;;0.95;;
8532;SDS011;4304;53.876;10.662;2023-04-24T09:34:47;2.58;;;0.70;;
8532;SDS011;4304;53.876;10.662;2023-04-24T09:37:29;1.98;;;0.90;;
8532;SDS011;4304;53.876;10.662;2023-04-24T09:42:44;2.55;;;1.20;;
8532;SDS011;4304;53.876;10.662;2023-04-24T09:45:20;1.60;;;0.80;;
8532;SDS011;4304;53.876;10.662;2023-04-24T09:47:46;1.75;;;0.90;;
8532;SDS011;4304;53.876;10.662;2023-04-24T09:50:16;2.55;;;1.00;;
8532;SDS011;4304;53.876;10.662;2023-04-24T09:52:58;1.85;;;1.10;;
8532;SDS011;4304;53.876;10.662;2023-04-24T09:55:26;1.25;;;0.50;;
8532;SDS011;4304;53.876;10.662;2023-04-24T09:57:54;1.95;;;0.93;;
8532;SDS011;4304;53.876;10.662;2023-04-24T10:00:24;1.65;;;0.70;;
8532;SDS011;4304;53.876;10.662;2023-04-24T10:05:24;6.32;;;0.85;;
8532;SDS011;4304;53.876;10.662;2023-04-24T10:08:01;1.73;;;0.88;;
8532;SDS011;4304;53.876;10.662;2023-04-24T10:10:29;2.85;;;1.60;;
8532;SDS011;4304;53.876;10.662;2023-04-24T10:12:56;2.10;;;1.17;;
8532;SDS011;4304;53.876;10.662;2023-04-24T10:15:21;2.47;;;1.55;;
8532;SDS011;4304;53.876;10.662;2023-04-24T10:17:50;2.05;;;0.88;;
8532;SDS011;4304;53.876;10.662;2023-04-24T10:22:49;2.00;;;1.17;;
8532;SDS011;4304;53.876;10.662;2023-04-24T10:25:19;2.13;;;0.75;;
8532;SDS011;4304;53.876;10.662;2023-04-24T10:27:46;2.05;;;1.15;;
8532;SDS011;4304;53.876;10.662;2023-04-24T10:30:12;2.63;;;1.50;;
8532;SDS011;4304;53.876;10.662;2023-04-24T10:32:38;1.98;;;1.27;;
8532;SDS011;4304;53.876;10.662;2023-04-24T10:35:03;2.17;;;1.03;;
8532;SDS011;4304;53.876;10.662;2023-04-24T10:37:35;4.78;;;1.25;;
8532;SDS011;4304;53.876;10.662;2023-04-24T10:40:02;2.22;;;1.30;;
8532;SDS011;4304;53.876;10.662;2023-04-24T10:42:28;3.95;;;1.73;;
8532;SDS011;4304;53.876;10.662;2023-04-24T10:44:54;1.80;;;1.30;;
8532;SDS011;4304;53.876;10.662;2023-04-24T10:47:20;2.70;;;1.42;;
8532;SDS011;4304;53.876;10.662;2023-04-24T10:49:46;2.13;;;1.00;;
8532;SDS011;4304;53.876;10.662;2023-04-24T10:52:15;2.33;;;1.02;;
8532;SDS011;4304;53.876;10.662;2023-04-24T10:54:44;2.78;;;1.67;;
8532;SDS011;4304;53.876;10.662;2023-04-24T11:00:28;2.08;;;1.17;;
8532;SDS011;4304;53.876;10.662;2023-04-24T11:02:57;2.05;;;0.90;;
8532;SDS011;4304;53.876;10.662;2023-04-24T11:05:24;1.88;;;0.88;;
8532;SDS011;4304;53.876;10.662;2023-04-24T11:08:15;1.58;;;1.00;;
8532;SDS011;4304;53.876;10.662;2023-04-24T11:10:47;1.50;;;0.93;;
8532;SDS011;4304;53.876;10.662;2023-04-24T11:13:21;1.98;;;1.15;;
8532;SDS011;4304;53.876;10.662;2023-04-24T11:15:58;4.47;;;1.88;;
8532;SDS011;4304;53.876;10.662;2023-04-24T11:19:02;3.30;;;1.70;;
8532;SDS011;4304;53.876;10.662;2023-04-24T11:21:31;2.47;;;1.15;;
8532;SDS011;4304;53.876;10.662;2023-04-24T11:23:58;3.60;;;1.75;;
8532;SDS011;4304;53.876;10.662;2023-04-24T11:26:23;2.42;;;1.40;;
8532;SDS011;4304;53.876;10.662;2023-04-24T11:29:05;4.93;;;2.55;;
8532;SDS011;4304;53.876;10.662;2023-04-24T11:31:36;2.85;;;1.25;;
8532;SDS011;4304;53.876;10.662;2023-04-24T11:34:09;3.92;;;1.50;;
8532;SDS011;4304;53.876;10.662;2023-04-24T11:36:36;3.00;;;1.63;;
8532;SDS011;4304;53.876;10.662;2023-04-24T11:39:02;3.05;;;1.30;;
8532;SDS011;4304;53.876;10.662;2023-04-24T11:41:28;1.98;;;0.90;;
8532;SDS011;4304;53.876;10.662;2023-04-24T11:43:53;2.40;;;1.10;;
8532;SDS011;4304;53.876;10.662;2023-04-24T11:46:20;3.08;;;1.80;;
8532;SDS011;4304;53.876;10.662;2023-04-24T11:48:46;2.67;;;1.15;;
8532;SDS011;4304;53.876;10.662;2023-04-24T11:51:12;2.13;;;1.17;;
8532;SDS011;4304;53.876;10.662;2023-04-24T11:53:38;2.80;;;1.63;;
8532;SDS011;4304;53.876;10.662;2023-04-24T11:56:03;2.05;;;1.30;;
8532;SDS011;4304;53.876;10.662;2023-04-24T11:58:34;3.92;;;2.08;;
8532;SDS011;4304;53.876;10.662;2023-04-24T12:01:09;4.40;;;2.33;;
8532;SDS011;4304;53.876;10.662;2023-04-24T12:03:34;5.38;;;1.88;;
8532;SDS011;4304;53.876;10.662;2023-04-24T12:06:06;3.95;;;2.20;;
8532;SDS011;4304;53.876;10.662;2023-04-24T12:08:33;3.40;;;1.75;;
8532;SDS011;4304;53.876;10.662;2023-04-24T12:11:02;2.75;;;1.75;;
8532;SDS011;4304;53.876;10.662;2023-04-24T12:13:28;3.83;;;2.05;;
8532;SDS011;4304;53.876;10.662;2023-04-24T12:15:54;3.75;;;1.98;;
8532;SDS011;4304;53.876;10.662;2023-04-24T12:18:23;3.88;;;2.25;;
8532;SDS011;4304;53.876;10.662;2023-04-24T12:20:49;3.65;;;2.33;;
8532;SDS011;4304;53.876;10.662;2023-04-24T12:23:15;3.33;;;2.05;;
8532;SDS011;4304;53.876;10.662;2023-04-24T12:25:41;4.97;;;2.45;;
8532;SDS011;4304;53.876;10.662;2023-04-24T12:30:35;3.45;;;1.48;;
8532;SDS011;4304;53.876;10.662;2023-04-24T12:33:05;4.10;;;2.08;;
8532;SDS011;4304;53.876;10.662;2023-04-24T12:35:31;4.68;;;1.83;;
8532;SDS011;4304;53.876;10.662;2023-04-24T12:38:07;2.33;;;1.17;;
8532;SDS011;4304;53.876;10.662;2023-04-24T12:40:46;3.47;;;2.30;;
8532;SDS011;4304;53.876;10.662;2023-04-24T12:43:15;4.32;;;2.08;;
8532;SDS011;4304;53.876;10.662;2023-04-24T12:45:44;5.30;;;2.67;;
8532;SDS011;4304;53.876;10.662;2023-04-24T12:48:10;3.90;;;1.88;;
8532;SDS011;4304;53.876;10.662;2023-04-24T12:50:36;2.78;;;1.73;;
8532;SDS011;4304;53.876;10.662;2023-04-24T12:53:02;5.68;;;2.20;;
8532;SDS011;4304;53.876;10.662;2023-04-24T12:55:28;4.28;;;1.50;;
8532;SDS011;4304;53.876;10.662;2023-04-24T12:57:53;2.75;;;1.48;;
8532;SDS011;4304;53.876;10.662;2023-04-24T13:00:20;3.75;;;1.75;;
8532;SDS011;4304;53.876;10.662;2023-04-24T13:02:45;6.50;;;2.17;;
8532;SDS011;4304;53.876;10.662;2023-04-24T13:05:11;5.32;;;2.28;;
8532;SDS011;4304;53.876;10.662;2023-04-24T13:07:38;5.25;;;2.63;;
8532;SDS011;4304;53.876;10.662;2023-04-24T13:10:04;3.92;;;1.65;;
8532;SDS011;4304;53.876;10.662;2023-04-24T13:12:30;3.75;;;2.35;;
8532;SDS011;4304;53.876;10.662;2023-04-24T13:14:55;5.05;;;2.55;;
8532;SDS011;4304;53.876;10.662;2023-04-24T13:17:21;4.85;;;2.65;;
8532;SDS011;4304;53.876;10.662;2023-04-24T13:19:48;2.90;;;1.58;;
8532;SDS011;4304;53.876;10.662;2023-04-24T13:47:45;4.90;;;1.55;;
8532;SDS011;4304;53.876;10.662;2023-04-24T13:50:11;3.93;;;1.83;;
8532;SDS011;4304;53.876;10.662;2023-04-24T13:52:36;3.72;;;2.03;;
8532;SDS011;4304;53.876;10.662;2023-04-24T13:55:01;4.57;;;1.85;;
8532;SDS011;4304;53.876;10.662;2023-04-24T13:57:27;2.83;;;1.33;;
8532;SDS011;4304;53.876;10.662;2023-04-24T13:59:53;2.88;;;1.20;;
8532;SDS011;4304;53.876;10.662;2023-04-24T14:02:18;3.72;;;1.55;;
8532;SDS011;4304;53.876;10.662;2023-04-24T14:04:44;2.93;;;1.50;;
8532;SDS011;4304;53.876;10.662;2023-04-24T14:07:09;3.15;;;1.58;;
8532;SDS011;4304;53.876;10.662;2023-04-24T14:09:35;3.78;;;1.63;;
8532;SDS011;4304;53.876;10.662;2023-04-24T14:12:00;3.45;;;1.25;;
8532;SDS011;4304;53.876;10.662;2023-04-24T14:14:26;4.50;;;2.03;;
8532;SDS011;4304;53.876;10.662;2023-04-24T14:16:52;5.07;;;2.38;;
8532;SDS011;4304;53.876;10.662;2023-04-24T14:19:17;3.55;;;1.20;;
8532;SDS011;4304;53.876;10.662;2023-04-24T14:21:43;2.10;;;1.38;;
8532;SDS011;4304;53.876;10.662;2023-04-24T14:24:08;2.23;;;1.07;;
8532;SDS011;4304;53.876;10.662;2023-04-24T14:26:34;1.73;;;0.98;;
8532;SDS011;4304;53.876;10.662;2023-04-24T14:28:59;2.08;;;0.90;;
8532;SDS011;4304;53.876;10.662;2023-04-24T14:31:25;1.23;;;0.60;;
8532;SDS011;4304;53.876;10.662;2023-04-24T14:33:50;2.20;;;1.60;;
8532;SDS011;4304;53.876;10.662;2023-04-24T14:36:15;5.25;;;1.33;;
8532;SDS011;4304;53.876;10.662;2023-04-24T14:38:41;2.40;;;1.48;;
8532;SDS011;4304;53.876;10.662;2023-04-24T14:41:06;2.47;;;1.40;;
8532;SDS011;4304;53.876;10.662;2023-04-24T14:43:35;2.70;;;1.65;;
8532;SDS011;4304;53.876;10.662;2023-04-24T14:46:00;2.42;;;0.88;;
8532;SDS011;4304;53.876;10.662;2023-04-24T14:48:26;6.50;;;2.92;;
8532;SDS011;4304;53.876;10.662;2023-04-24T14:50:51;5.57;;;1.83;;
8532;SDS011;4304;53.876;10.662;2023-04-24T14:53:17;2.78;;;1.30;;
8532;SDS011;4304;53.876;10.662;2023-04-24T14:55:42;2.30;;;1.00;;
8532;SDS011;4304;53.876;10.662;2023-04-24T14:58:08;3.80;;;1.08;;
8532;SDS011;4304;53.876;10.662;2023-04-24T15:00:33;2.10;;;0.80;;
8532;SDS011;4304;53.876;10.662;2023-04-24T15:02:59;2.63;;;1.23;;
8532;SDS011;4304;53.876;10.662;2023-04-24T15:05:25;4.00;;;1.45;;
8532;SDS011;4304;53.876;10.662;2023-04-24T15:07:51;1.45;;;0.85;;
8532;SDS011;4304;53.876;10.662;2023-04-24T15:10:16;2.65;;;1.63;;
8532;SDS011;4304;53.876;10.662;2023-04-24T15:12:42;2.05;;;0.75;;
8532;SDS011;4304;53.876;10.662;2023-04-24T15:15:08;2.95;;;1.33;;
8532;SDS011;4304;53.876;10.662;2023-04-24T15:17:33;2.60;;;1.38;;
8532;SDS011;4304;53.876;10.662;2023-04-24T15:19:59;1.27;;;0.68;;
8532;SDS011;4304;53.876;10.662;2023-04-24T15:22:25;2.85;;;1.55;;
8532;SDS011;4304;53.876;10.662;2023-04-24T15:24:51;1.90;;;0.90;;
8532;SDS011;4304;53.876;10.662;2023-04-24T15:27:16;3.60;;;1.92;;
8532;SDS011;4304;53.876;10.662;2023-04-24T15:29:41;2.42;;;0.75;;
8532;SDS011;4304;53.876;10.662;2023-04-24T15:32:07;2.42;;;1.20;;
8532;SDS011;4304;53.876;10.662;2023-04-24T15:34:32;2.15;;;1.13;;